Time;durP1;ratioP1;P1;durP2;ratioP2;P2;SDS_P1;SDS_P2;PMS_P1;PMS_P2;Temp;Humidity;BMP_temperature;BMP_pressure;BME280_temperature;BME280_humidity;BME280_pressure;Samples;Min_cycle;Max_cycle;Signal;HPM_P1;HPM_P2
2022/10/26 00:00:28;;;;;;;8.90;4.97;;;;;;;;;;5005690;28;20030;-63
2022/10/26 00:02:54;;;;;;;8.07;4.47;;;;;;;;;;4969794;28;20062;-61
2022/10/26 00:05:20;;;;;;;10.20;4.57;;;;;;;;;;4991337;28;20859;-61
2022/10/26 00:07:46;;;;;;;8.73;4.75;;;;;;;;;;4985582;28;20403;-61
2022/10/26 00:10:11;;;;;;;10.50;4.80;;;;;;;;;;4988771;28;20168;-61
2022/10/26 00:12:37;;;;;;;7.55;4.68;;;;;;;;;;4992963;28;20131;-60
2022/10/26 00:15:02;;;;;;;7.63;4.50;;;;;;;;;;4988759;28;20038;-60
2022/10/26 00:17:28;;;;;;;11.38;4.70;;;;;;;;;;5009946;28;20038;-60
2022/10/26 00:19:53;;;;;;;10.63;4.50;;;;;;;;;;4993072;28;20114;-60
2022/10/26 00:22:19;;;;;;;9.27;4.47;;;;;;;;;;4981630;28;20074;-61
2022/10/26 00:24:44;;;;;;;11.57;4.82;;;;;;;;;;4988048;28;20050;-60
2022/10/26 00:27:10;;;;;;;9.70;4.80;;;;;;;;;;4988014;28;20039;-61
2022/10/26 00:29:35;;;;;;;10.35;4.82;;;;;;;;;;4975486;28;20039;-60
2022/10/26 00:32:00;;;;;;;8.60;4.60;;;;;;;;;;4989020;28;20109;-61
2022/10/26 00:34:26;;;;;;;10.45;5.00;;;;;;;;;;4992721;28;20093;-60
2022/10/26 00:36:51;;;;;;;9.15;5.00;;;;;;;;;;4994304;28;20029;-61
2022/10/26 00:39:16;;;;;;;17.73;5.00;;;;;;;;;;4999957;28;20087;-61
2022/10/26 00:41:42;;;;;;;13.07;5.20;;;;;;;;;;4984111;28;20038;-61
2022/10/26 00:44:44;;;;;;;13.10;5.15;;;;;;;;;;4973855;28;20502;-62
2022/10/26 00:47:13;;;;;;;8.65;4.50;;;;;;;;;;4996893;28;20036;-62
2022/10/26 00:49:39;;;;;;;8.57;4.75;;;;;;;;;;4990430;28;20424;-61
2022/10/26 00:52:07;;;;;;;13.50;4.60;;;;;;;;;;4983544;28;20499;-61
2022/10/26 00:54:32;;;;;;;8.38;4.65;;;;;;;;;;4983358;28;20038;-61
2022/10/26 00:56:58;;;;;;;15.00;5.10;;;;;;;;;;4996112;28;20516;-61
2022/10/26 00:59:23;;;;;;;13.95;4.88;;;;;;;;;;4999945;28;20092;-60
2022/10/26 01:01:50;;;;;;;11.77;4.80;;;;;;;;;;5001937;28;20029;-61
2022/10/26 01:04:17;;;;;;;9.73;4.78;;;;;;;;;;5003104;28;20427;-61
2022/10/26 01:06:44;;;;;;;12.95;5.40;;;;;;;;;;5010124;28;20449;-62
2022/10/26 01:09:10;;;;;;;10.18;5.05;;;;;;;;;;5013040;28;20446;-61
2022/10/26 01:11:35;;;;;;;12.43;5.10;;;;;;;;;;4974261;28;20377;-61
2022/10/26 01:14:03;;;;;;;10.90;5.18;;;;;;;;;;4973590;28;20038;-62
2022/10/26 01:17:04;;;;;;;8.57;5.20;;;;;;;;;;5008141;28;20053;-61
2022/10/26 01:19:52;;;;;;;10.93;5.00;;;;;;;;;;5008354;28;20128;-61
2022/10/26 01:22:25;;;;;;;13.65;5.10;;;;;;;;;;4973373;28;20055;-60
2022/10/26 01:25:12;;;;;;;11.18;4.90;;;;;;;;;;4977820;28;20061;-61
2022/10/26 01:27:40;;;;;;;11.73;4.68;;;;;;;;;;4985032;28;20053;-61
2022/10/26 01:30:14;;;;;;;11.70;5.30;;;;;;;;;;4997691;28;20034;-60
2022/10/26 01:32:50;;;;;;;9.52;4.43;;;;;;;;;;5013192;28;20037;-60
2022/10/26 01:35:26;;;;;;;9.85;4.95;;;;;;;;;;4985006;28;20487;-60
2022/10/26 01:38:09;;;;;;;10.52;4.95;;;;;;;;;;4974385;28;20062;-60
2022/10/26 01:40:48;;;;;;;10.15;4.57;;;;;;;;;;4994078;28;20061;-61
2022/10/26 01:43:15;;;;;;;9.18;4.70;;;;;;;;;;4973908;28;20031;-60
2022/10/26 01:45:44;;;;;;;10.65;4.80;;;;;;;;;;4988594;28;20475;-61
2022/10/26 01:48:12;;;;;;;12.68;4.70;;;;;;;;;;4991631;28;20046;-61
2022/10/26 01:50:40;;;;;;;10.27;4.82;;;;;;;;;;4988243;28;20065;-61
2022/10/26 01:53:06;;;;;;;13.20;4.53;;;;;;;;;;4998013;28;20467;-61
2022/10/26 01:55:48;;;;;;;10.77;4.30;;;;;;;;;;4986066;28;20085;-61
2022/10/26 01:58:38;;;;;;;11.40;4.10;;;;;;;;;;4975780;28;20034;-60
2022/10/26 02:01:09;;;;;;;9.20;4.10;;;;;;;;;;4992240;28;20044;-61
2022/10/26 02:03:34;;;;;;;;;;;;;;;;;;4999550;28;20027;-60
2022/10/26 02:06:11;;;;;;;12.02;4.28;;;;;;;;;;4991017;28;19924;-60
2022/10/26 02:08:39;;;;;;;9.55;4.30;;;;;;;;;;4975888;28;20058;-62
2022/10/26 02:11:31;;;;;;;11.30;4.25;;;;;;;;;;4972858;28;20030;-60
2022/10/26 02:14:28;;;;;;;8.70;3.97;;;;;;;;;;5001536;28;20093;-61
2022/10/26 02:17:06;;;;;;;8.30;3.90;;;;;;;;;;4992167;28;20125;-60
2022/10/26 02:19:48;;;;;;;7.32;3.90;;;;;;;;;;4991232;28;20096;-60
2022/10/26 02:22:30;;;;;;;10.18;4.20;;;;;;;;;;4995468;28;20080;-62
2022/10/26 02:24:59;;;;;;;9.48;3.60;;;;;;;;;;4998252;28;20040;-61
2022/10/26 02:27:30;;;;;;;10.00;3.70;;;;;;;;;;4991818;28;20061;-60
2022/10/26 02:29:57;;;;;;;12.70;4.05;;;;;;;;;;4981420;28;20039;-60
2022/10/26 02:32:26;;;;;;;9.07;4.40;;;;;;;;;;4984817;28;20354;-61
2022/10/26 02:34:55;;;;;;;8.15;3.80;;;;;;;;;;4993215;28;20125;-62
2022/10/26 02:37:22;;;;;;;7.65;3.90;;;;;;;;;;4993401;28;20030;-62
2022/10/26 02:39:50;;;;;;;7.15;3.75;;;;;;;;;;4993106;28;20042;-62
2022/10/26 02:42:17;;;;;;;7.00;3.58;;;;;;;;;;4991161;28;20115;-62
2022/10/26 02:44:53;;;;;;;12.55;4.57;;;;;;;;;;4996106;28;20034;-61
2022/10/26 02:47:20;;;;;;;10.80;3.90;;;;;;;;;;4991867;28;20441;-61
2022/10/26 02:49:45;;;;;;;6.57;4.07;;;;;;;;;;4998225;28;20117;-61
2022/10/26 02:52:23;;;;;;;9.25;3.88;;;;;;;;;;4991667;28;20133;-61
2022/10/26 02:54:59;;;;;;;6.75;3.95;;;;;;;;;;4997342;28;20356;-61
2022/10/26 02:57:43;;;;;;;6.32;3.80;;;;;;;;;;4984095;28;20103;-62
2022/10/26 03:00:13;;;;;;;8.40;3.92;;;;;;;;;;4997039;28;20041;-61
2022/10/26 03:02:41;;;;;;;6.53;3.90;;;;;;;;;;4987251;28;20046;-60
2022/10/26 03:05:11;;;;;;;6.10;4.05;;;;;;;;;;4983285;28;20101;-61
2022/10/26 03:07:37;;;;;;;8.80;4.07;;;;;;;;;;4979110;28;20058;-61
2022/10/26 03:10:03;;;;;;;10.38;4.13;;;;;;;;;;4995469;28;20399;-60
2022/10/26 03:12:28;;;;;;;8.02;4.00;;;;;;;;;;4995995;28;20169;-60
2022/10/26 03:14:53;;;;;;;10.80;4.78;;;;;;;;;;5004189;28;20042;-60
2022/10/26 03:17:19;;;;;;;13.60;4.28;;;;;;;;;;5002529;28;20034;-60
2022/10/26 03:19:44;;;;;;;8.20;3.83;;;;;;;;;;4999005;28;20038;-60
2022/10/26 03:22:09;;;;;;;8.32;3.72;;;;;;;;;;4990102;28;20519;-62
2022/10/26 03:24:35;;;;;;;9.90;3.80;;;;;;;;;;5008696;28;20033;-63
2022/10/26 03:27:00;;;;;;;7.35;3.70;;;;;;;;;;5010645;28;20026;-65
2022/10/26 03:29:25;;;;;;;7.22;3.47;;;;;;;;;;5011152;28;20049;-64
2022/10/26 03:31:53;;;;;;;10.50;3.85;;;;;;;;;;5004879;28;20463;-66
2022/10/26 03:34:19;;;;;;;7.03;3.90;;;;;;;;;;5004220;28;20089;-64
2022/10/26 03:36:45;;;;;;;7.25;3.83;;;;;;;;;;5011634;28;20475;-66
2022/10/26 03:39:10;;;;;;;6.40;3.90;;;;;;;;;;5010862;28;20065;-66
2022/10/26 03:41:35;;;;;;;12.15;4.25;;;;;;;;;;5012284;28;20028;-67
2022/10/26 03:44:01;;;;;;;7.80;3.97;;;;;;;;;;5011130;28;20044;-65
2022/10/26 03:46:26;;;;;;;7.43;3.67;;;;;;;;;;5011436;28;20034;-65
2022/10/26 03:48:52;;;;;;;11.55;3.97;;;;;;;;;;5005422;28;20051;-65
2022/10/26 03:51:17;;;;;;;9.95;3.95;;;;;;;;;;5006562;28;20057;-66
2022/10/26 03:53:42;;;;;;;9.27;4.30;;;;;;;;;;4992421;28;20058;-65
2022/10/26 03:56:08;;;;;;;8.20;4.40;;;;;;;;;;4991643;28;20558;-65
2022/10/26 03:58:33;;;;;;;14.65;4.00;;;;;;;;;;4992281;28;20019;-66
2022/10/26 04:00:58;;;;;;;8.52;4.13;;;;;;;;;;4993109;28;20432;-66
2022/10/26 04:03:24;;;;;;;12.57;3.85;;;;;;;;;;5007757;28;20049;-66
2022/10/26 04:05:49;;;;;;;7.82;4.10;;;;;;;;;;5014557;28;20029;-66
2022/10/26 04:08:14;;;;;;;11.23;3.88;;;;;;;;;;5015265;28;20458;-66
2022/10/26 04:10:40;;;;;;;10.05;4.10;;;;;;;;;;5015755;28;20030;-66
2022/10/26 04:13:05;;;;;;;9.10;3.83;;;;;;;;;;5015084;28;20092;-65
2022/10/26 04:15:30;;;;;;;7.63;3.55;;;;;;;;;;5015576;28;20451;-66
2022/10/26 04:18:01;;;;;;;10.57;4.70;;;;;;;;;;5009277;28;20072;-66
2022/10/26 04:20:28;;;;;;;7.18;4.03;;;;;;;;;;5014779;28;20100;-66
2022/10/26 04:22:57;;;;;;;8.43;4.00;;;;;;;;;;5015419;28;20426;-67
2022/10/26 04:25:22;;;;;;;10.57;4.10;;;;;;;;;;5014848;28;20041;-65
2022/10/26 04:27:48;;;;;;;8.32;4.00;;;;;;;;;;5015642;28;20044;-66
2022/10/26 04:30:13;;;;;;;7.38;3.75;;;;;;;;;;5014766;28;20026;-65
2022/10/26 04:32:40;;;;;;;6.70;3.70;;;;;;;;;;5013686;28;20050;-65
2022/10/26 04:35:06;;;;;;;7.75;3.92;;;;;;;;;;5015002;28;20533;-65
2022/10/26 04:37:32;;;;;;;8.95;3.70;;;;;;;;;;5015379;28;20030;-66
2022/10/26 04:39:58;;;;;;;8.20;3.90;;;;;;;;;;5015124;28;20069;-66
2022/10/26 04:42:23;;;;;;;7.13;3.97;;;;;;;;;;5014638;28;20050;-66
2022/10/26 04:44:48;;;;;;;9.25;3.80;;;;;;;;;;5009273;28;20034;-65
2022/10/26 04:47:14;;;;;;;10.80;3.97;;;;;;;;;;5013039;28;20402;-64
2022/10/26 04:49:39;;;;;;;7.85;3.97;;;;;;;;;;5015378;28;20058;-65
2022/10/26 04:52:05;;;;;;;15.10;3.97;;;;;;;;;;5014776;28;20030;-65
2022/10/26 04:54:30;;;;;;;9.55;3.80;;;;;;;;;;5013885;28;20026;-65
2022/10/26 04:56:56;;;;;;;10.18;4.00;;;;;;;;;;5014452;28;20040;-65
2022/10/26 04:59:21;;;;;;;7.25;3.60;;;;;;;;;;5012676;28;20030;-65
2022/10/26 05:01:47;;;;;;;7.72;3.92;;;;;;;;;;5010237;28;20517;-66
2022/10/26 05:04:12;;;;;;;10.05;3.80;;;;;;;;;;5014394;28;20026;-65
2022/10/26 05:06:37;;;;;;;7.63;3.78;;;;;;;;;;5014801;28;20030;-66
2022/10/26 05:09:03;;;;;;;9.20;3.90;;;;;;;;;;5014731;28;20026;-65
2022/10/26 05:11:28;;;;;;;6.93;3.70;;;;;;;;;;5014297;28;20045;-65
2022/10/26 05:13:54;;;;;;;9.32;3.67;;;;;;;;;;5014582;28;20057;-66
2022/10/26 05:16:19;;;;;;;7.82;4.10;;;;;;;;;;5006943;28;20044;-65
2022/10/26 05:18:47;;;;;;;6.68;3.80;;;;;;;;;;5014714;28;20034;-65
2022/10/26 05:21:18;;;;;;;10.45;4.18;;;;;;;;;;5014164;28;20030;-65
2022/10/26 05:23:44;;;;;;;13.45;4.13;;;;;;;;;;5014635;28;20474;-66
2022/10/26 05:26:09;;;;;;;7.78;3.80;;;;;;;;;;5013836;28;20045;-64
2022/10/26 05:28:34;;;;;;;8.93;3.85;;;;;;;;;;5014770;28;20042;-65
2022/10/26 05:31:00;;;;;;;8.90;3.75;;;;;;;;;;5012538;28;20062;-65
2022/10/26 05:33:25;;;;;;;6.18;3.60;;;;;;;;;;5013726;28;20455;-66
2022/10/26 05:35:53;;;;;;;8.45;3.97;;;;;;;;;;5014164;28;20441;-66
2022/10/26 05:38:19;;;;;;;8.10;3.90;;;;;;;;;;5013701;28;20030;-66
2022/10/26 05:40:51;;;;;;;8.15;3.83;;;;;;;;;;5014146;28;20079;-66
2022/10/26 05:43:18;;;;;;;6.03;3.33;;;;;;;;;;5013777;28;20022;-66
2022/10/26 05:45:44;;;;;;;12.23;3.80;;;;;;;;;;5007017;28;20033;-67
2022/10/26 05:48:10;;;;;;;8.45;3.65;;;;;;;;;;5014047;28;20038;-62
2022/10/26 05:50:36;;;;;;;10.73;3.45;;;;;;;;;;5014007;28;20029;-67
2022/10/26 05:53:01;;;;;;;7.45;3.53;;;;;;;;;;5013969;28;20021;-66
2022/10/26 05:55:27;;;;;;;10.52;3.53;;;;;;;;;;5013030;28;20406;-66
2022/10/26 05:57:53;;;;;;;6.53;3.53;;;;;;;;;;5013211;28;20435;-66
2022/10/26 06:00:21;;;;;;;8.02;3.33;;;;;;;;;;5009907;28;20141;-66
2022/10/26 06:03:07;;;;;;;10.05;3.55;;;;;;;;;;5013826;28;20048;-66
2022/10/26 06:05:40;;;;;;;6.38;3.50;;;;;;;;;;5012968;28;20040;-65
2022/10/26 06:08:12;;;;;;;8.90;3.63;;;;;;;;;;5013746;28;20057;-66
2022/10/26 06:10:38;;;;;;;5.05;2.85;;;;;;;;;;5013642;28;20029;-66
2022/10/26 06:13:03;;;;;;;9.38;3.17;;;;;;;;;;5013741;28;20036;-65
2022/10/26 06:15:36;;;;;;;9.07;3.60;;;;;;;;;;5007549;28;20368;-64
2022/10/26 06:18:40;;;;;;;8.15;3.30;;;;;;;;;;5013530;28;20038;-66
2022/10/26 06:21:20;;;;;;;6.15;3.35;;;;;;;;;;4989839;28;20037;-63
2022/10/26 06:24:06;;;;;;;6.80;3.28;;;;;;;;;;4991125;28;20392;-67
2022/10/26 06:26:50;;;;;;;8.90;3.38;;;;;;;;;;5005568;28;20061;-63
2022/10/26 06:29:44;;;;;;;6.07;3.00;;;;;;;;;;5006917;28;20049;-63
2022/10/26 06:32:10;;;;;;;6.05;3.20;;;;;;;;;;4974030;28;20472;-64
2022/10/26 06:34:41;;;;;;;7.70;3.35;;;;;;;;;;4983205;28;20031;-63
2022/10/26 06:37:07;;;;;;;6.75;3.08;;;;;;;;;;4991797;28;20030;-64
2022/10/26 06:39:37;;;;;;;7.10;3.17;;;;;;;;;;4992869;28;20034;-63
2022/10/26 06:42:03;;;;;;;7.22;3.40;;;;;;;;;;4993902;28;20050;-64
2022/10/26 06:44:28;;;;;;;8.50;2.90;;;;;;;;;;4992516;28;20242;-63
2022/10/26 06:47:06;;;;;;;7.95;2.80;;;;;;;;;;5011103;28;20479;-65
2022/10/26 06:49:40;;;;;;;8.05;2.75;;;;;;;;;;5012127;28;20040;-63
2022/10/26 06:52:14;;;;;;;7.85;2.80;;;;;;;;;;5012798;28;20030;-63
2022/10/26 06:54:50;;;;;;;6.80;2.72;;;;;;;;;;5013007;28;20079;-63
2022/10/26 06:57:18;;;;;;;7.13;2.47;;;;;;;;;;5011841;28;20037;-63
2022/10/26 06:59:46;;;;;;;5.70;2.60;;;;;;;;;;5003920;28;20023;-63
2022/10/26 07:02:13;;;;;;;10.13;3.08;;;;;;;;;;5012557;28;20117;-63
2022/10/26 07:04:39;;;;;;;7.05;2.70;;;;;;;;;;5012378;28;20038;-63
2022/10/26 07:07:04;;;;;;;6.18;2.60;;;;;;;;;;5012521;28;20497;-62
2022/10/26 07:09:30;;;;;;;5.70;2.63;;;;;;;;;;5012109;28;20371;-63
2022/10/26 07:11:55;;;;;;;6.63;2.70;;;;;;;;;;5012425;28;20041;-62
2022/10/26 07:14:20;;;;;;;8.75;2.80;;;;;;;;;;5009363;28;20028;-67
2022/10/26 07:16:46;;;;;;;8.45;2.75;;;;;;;;;;5012111;28;20034;-65
2022/10/26 07:19:11;;;;;;;6.80;2.83;;;;;;;;;;5012343;28;20138;-64
2022/10/26 07:21:36;;;;;;;7.32;2.83;;;;;;;;;;5011876;28;20029;-64
2022/10/26 07:24:02;;;;;;;6.75;2.70;;;;;;;;;;5012494;28;20052;-64
2022/10/26 07:26:27;;;;;;;5.90;2.90;;;;;;;;;;5012059;28;20141;-64
2022/10/26 07:28:53;;;;;;;14.93;2.70;;;;;;;;;;5010891;28;20388;-66
2022/10/26 07:31:18;;;;;;;7.30;2.50;;;;;;;;;;5011371;28;20030;-65
2022/10/26 07:33:44;;;;;;;5.53;2.58;;;;;;;;;;5011102;28;20030;-65
2022/10/26 07:36:10;;;;;;;4.78;2.42;;;;;;;;;;5013932;28;20463;-65
2022/10/26 07:38:36;;;;;;;9.45;2.80;;;;;;;;;;5015587;28;20084;-65
2022/10/26 07:41:02;;;;;;;5.32;2.45;;;;;;;;;;5015870;28;20030;-65
2022/10/26 07:43:28;;;;;;;6.50;2.72;;;;;;;;;;5010018;28;20149;-64
2022/10/26 07:45:53;;;;;;;7.80;2.50;;;;;;;;;;5015810;28;20065;-65
2022/10/26 07:48:18;;;;;;;8.57;2.40;;;;;;;;;;5015868;28;20077;-64
2022/10/26 07:50:44;;;;;;;7.10;2.20;;;;;;;;;;5018613;28;20065;-68
2022/10/26 07:53:09;;;;;;;6.70;2.10;;;;;;;;;;5017775;28;20036;-65
2022/10/26 07:55:35;;;;;;;5.53;2.25;;;;;;;;;;5017428;28;20038;-64
2022/10/26 07:58:00;;;;;;;4.95;2.42;;;;;;;;;;5015109;28;20080;-65
2022/10/26 08:00:27;;;;;;;3.28;2.10;;;;;;;;;;5016780;28;20025;-64
2022/10/26 08:02:53;;;;;;;6.18;2.00;;;;;;;;;;5017826;28;20117;-64
2022/10/26 08:05:19;;;;;;;6.40;2.15;;;;;;;;;;5015557;28;20534;-64
2022/10/26 08:07:45;;;;;;;4.95;2.20;;;;;;;;;;5015541;28;20498;-64
2022/10/26 08:10:11;;;;;;;4.47;2.10;;;;;;;;;;5015946;28;20032;-64
2022/10/26 08:12:37;;;;;;;4.90;2.28;;;;;;;;;;5010451;28;20402;-63
2022/10/26 08:15:02;;;;;;;6.20;3.00;;;;;;;;;;5014523;28;20038;-64
2022/10/26 08:17:28;;;;;;;6.80;2.50;;;;;;;;;;5014879;28;20021;-64
2022/10/26 08:19:54;;;;;;;6.85;2.63;;;;;;;;;;5015842;28;20038;-65
2022/10/26 08:22:19;;;;;;;5.22;2.72;;;;;;;;;;5014993;28;20467;-64
2022/10/26 08:24:45;;;;;;;6.55;2.60;;;;;;;;;;5015694;28;20034;-64
2022/10/26 08:27:13;;;;;;;7.20;2.72;;;;;;;;;;5013763;28;20042;-64
2022/10/26 08:29:38;;;;;;;6.93;2.63;;;;;;;;;;5014833;28;20042;-64
2022/10/26 08:32:04;;;;;;;6.38;3.47;;;;;;;;;;5015642;28;20025;-64
2022/10/26 08:34:29;;;;;;;8.35;2.85;;;;;;;;;;5014728;28;20073;-64
2022/10/26 08:36:55;;;;;;;6.88;2.45;;;;;;;;;;5015029;28;20034;-64
2022/10/26 08:39:20;;;;;;;5.30;2.38;;;;;;;;;;5014952;28;20509;-64
2022/10/26 08:41:51;;;;;;;6.55;2.17;;;;;;;;;;5010568;28;20037;-65
2022/10/26 08:44:24;;;;;;;;;;;;;;;;;;5015595;28;20042;-64
2022/10/26 08:46:57;;;;;;;4.40;1.92;;;;;;;;;;5014554;28;19909;-64
2022/10/26 08:49:26;;;;;;;4.68;1.90;;;;;;;;;;5014018;28;20411;-64
2022/10/26 08:51:56;;;;;;;5.13;1.83;;;;;;;;;;5014901;28;20516;-64
2022/10/26 08:54:47;;;;;;;5.93;2.05;;;;;;;;;;5014867;28;20056;-63
2022/10/26 08:57:19;;;;;;;;;;;;;;;;;;5013634;28;20099;-65
2022/10/26 08:59:52;;;;;;;7.20;2.15;;;;;;;;;;5015398;28;20362;-66
2022/10/26 09:02:17;;;;;;;5.93;1.70;;;;;;;;;;5017920;28;20083;-64
2022/10/26 09:04:43;;;;;;;3.00;1.48;;;;;;;;;;5016805;28;20458;-63
2022/10/26 09:07:47;;;;;;;6.80;1.67;;;;;;;;;;5018681;28;20038;-63
2022/10/26 09:10:18;;;;;;;3.92;1.52;;;;;;;;;;5015597;28;20116;-63
2022/10/26 09:12:52;;;;;;;3.38;1.48;;;;;;;;;;5017968;28;20048;-63
2022/10/26 09:15:49;;;;;;;4.68;1.60;;;;;;;;;;5018815;28;20025;-64
2022/10/26 09:18:35;;;;;;;3.35;1.50;;;;;;;;;;5018200;28;20030;-65
2022/10/26 09:21:16;;;;;;;5.90;1.40;;;;;;;;;;5016149;28;20030;-64
2022/10/26 09:23:53;;;;;;;6.30;1.63;;;;;;;;;;5014238;28;20061;-64
2022/10/26 09:26:53;;;;;;;6.38;1.67;;;;;;;;;;5008969;28;20034;-64
2022/10/26 09:29:22;;;;;;;3.50;1.50;;;;;;;;;;5014543;28;20041;-64
2022/10/26 09:31:49;;;;;;;5.30;1.63;;;;;;;;;;5013603;28;20368;-64
2022/10/26 09:34:40;;;;;;;5.10;1.67;;;;;;;;;;5014341;28;20485;-64
2022/10/26 09:37:23;;;;;;;3.13;1.60;;;;;;;;;;5014378;28;20037;-64
2022/10/26 09:39:54;;;;;;;5.15;1.75;;;;;;;;;;5009006;28;20118;-63
2022/10/26 09:42:32;;;;;;;3.30;1.52;;;;;;;;;;5014356;28;20038;-64
2022/10/26 09:45:04;;;;;;;6.20;1.52;;;;;;;;;;5014316;28;20042;-64
2022/10/26 09:47:36;;;;;;;5.65;2.67;;;;;;;;;;5013547;28;20042;-63
2022/10/26 09:50:05;;;;;;;5.78;1.58;;;;;;;;;;5013143;28;20378;-64
2022/10/26 09:52:30;;;;;;;5.28;1.58;;;;;;;;;;5013797;28;20030;-63
2022/10/26 09:54:56;;;;;;;5.95;1.67;;;;;;;;;;5012243;28;20026;-63
2022/10/26 09:57:22;;;;;;;3.60;1.52;;;;;;;;;;5013725;28;20033;-65
2022/10/26 09:59:49;;;;;;;4.72;1.60;;;;;;;;;;5011143;28;20501;-64
2022/10/26 10:02:36;;;;;;;4.00;1.65;;;;;;;;;;5013856;28;20076;-64
2022/10/26 10:05:19;;;;;;;4.57;1.65;;;;;;;;;;5013830;28;20104;-65
2022/10/26 10:07:44;;;;;;;4.55;2.03;;;;;;;;;;5013009;28;20072;-64
2022/10/26 10:10:22;;;;;;;6.50;1.70;;;;;;;;;;5008817;28;20030;-63
2022/10/26 10:12:51;;;;;;;6.80;1.65;;;;;;;;;;5013015;28;20157;-64
2022/10/26 10:15:24;;;;;;;5.97;1.80;;;;;;;;;;5013494;28;20042;-65
2022/10/26 10:17:54;;;;;;;7.97;1.70;;;;;;;;;;5012728;28;20088;-64
2022/10/26 10:20:24;;;;;;;4.63;1.60;;;;;;;;;;5013656;28;20042;-64
2022/10/26 10:22:57;;;;;;;4.15;1.80;;;;;;;;;;5012682;28;20393;-64
2022/10/26 10:25:37;;;;;;;3.65;1.80;;;;;;;;;;5008079;28;20037;-64
2022/10/26 10:28:20;;;;;;;3.95;1.83;;;;;;;;;;5013287;28;20402;-64
2022/10/26 10:30:54;;;;;;;6.82;2.10;;;;;;;;;;5012752;28;20482;-64
2022/10/26 10:33:20;;;;;;;5.35;2.05;;;;;;;;;;5013393;28;20461;-64
2022/10/26 10:35:51;;;;;;;6.32;1.88;;;;;;;;;;5012537;28;20529;-65
2022/10/26 10:38:20;;;;;;;4.85;1.80;;;;;;;;;;5012955;28;20026;-64
2022/10/26 10:40:55;;;;;;;4.57;2.03;;;;;;;;;;5010448;28;20040;-64
2022/10/26 10:43:21;;;;;;;6.13;2.15;;;;;;;;;;5012727;28;20095;-64
2022/10/26 10:45:49;;;;;;;6.38;2.15;;;;;;;;;;5012370;28;20034;-64
2022/10/26 10:48:19;;;;;;;5.80;1.90;;;;;;;;;;5012560;28;20168;-64
2022/10/26 10:50:59;;;;;;;3.37;1.83;;;;;;;;;;5012368;28;20091;-64
2022/10/26 10:53:34;;;;;;;5.72;2.05;;;;;;;;;;5008884;28;20664;-64
2022/10/26 10:56:03;;;;;;;7.10;2.10;;;;;;;;;;4973541;28;20503;-64
2022/10/26 10:58:54;;;;;;;7.88;2.10;;;;;;;;;;4988152;28;20019;-63
2022/10/26 11:01:22;;;;;;;3.83;2.03;;;;;;;;;;4972515;28;20376;-64
2022/10/26 11:04:12;;;;;;;4.07;2.00;;;;;;;;;;4973077;28;20031;-64
2022/10/26 11:06:40;;;;;;;3.17;1.77;;;;;;;;;;4973000;28;20476;-64
2022/10/26 11:09:12;;;;;;;6.70;1.95;;;;;;;;;;4988637;28;20107;-63
2022/10/26 11:11:55;;;;;;;5.85;2.25;;;;;;;;;;5010465;28;20030;-63
2022/10/26 11:14:29;;;;;;;5.15;2.08;;;;;;;;;;5012839;28;20072;-64
2022/10/26 11:17:19;;;;;;;6.25;2.33;;;;;;;;;;5012113;28;20113;-64
2022/10/26 11:20:15;;;;;;;7.25;2.13;;;;;;;;;;5011841;28;20076;-65
2022/10/26 11:23:13;;;;;;;5.55;2.03;;;;;;;;;;5008784;28;20052;-64
2022/10/26 11:25:52;;;;;;;5.38;2.30;;;;;;;;;;4974351;28;20050;-65
2022/10/26 11:28:41;;;;;;;7.80;2.15;;;;;;;;;;4973495;28;20034;-65
2022/10/26 11:31:12;;;;;;;7.00;2.30;;;;;;;;;;4973541;28;20480;-65
2022/10/26 11:33:47;;;;;;;5.32;2.33;;;;;;;;;;4972700;28;20114;-65
2022/10/26 11:36:17;;;;;;;6.38;2.40;;;;;;;;;;4973960;28;20031;-65
2022/10/26 11:39:19;;;;;;;5.75;2.30;;;;;;;;;;4991042;28;20030;-65
2022/10/26 11:41:52;;;;;;;6.82;2.13;;;;;;;;;;4993485;28;20092;-65
2022/10/26 11:44:28;;;;;;;10.25;2.50;;;;;;;;;;5012779;28;20030;-65
2022/10/26 11:47:02;;;;;;;4.97;2.33;;;;;;;;;;5011167;28;20606;-65
2022/10/26 11:49:59;;;;;;;5.63;2.45;;;;;;;;;;5012428;28;20025;-65
2022/10/26 11:52:32;;;;;;;4.68;2.22;;;;;;;;;;5009931;28;20729;-65
2022/10/26 11:55:03;;;;;;;5.88;2.30;;;;;;;;;;5012706;28;20048;-66
2022/10/26 11:57:31;;;;;;;4.28;2.05;;;;;;;;;;5010852;28;20026;-65
2022/10/26 12:00:01;;;;;;;6.40;1.98;;;;;;;;;;5011457;28;20029;-65
2022/10/26 12:02:26;;;;;;;8.70;2.55;;;;;;;;;;5012631;28;20057;-65
2022/10/26 12:04:58;;;;;;;5.32;2.38;;;;;;;;;;5011646;28;20400;-65
2022/10/26 12:07:28;;;;;;;7.30;2.35;;;;;;;;;;5008221;28;20450;-65
2022/10/26 12:09:55;;;;;;;7.38;2.28;;;;;;;;;;5009109;28;20077;-65
2022/10/26 12:12:35;;;;;;;7.05;2.28;;;;;;;;;;5011981;28;20034;-65
2022/10/26 12:15:25;;;;;;;8.57;2.30;;;;;;;;;;5012316;28;20033;-65
2022/10/26 12:18:00;;;;;;;7.78;2.50;;;;;;;;;;5011323;28;20057;-65
2022/10/26 12:21:07;;;;;;;4.90;2.10;;;;;;;;;;5012181;28;20034;-65
2022/10/26 12:23:36;;;;;;;5.82;2.28;;;;;;;;;;5007393;28;20132;-66
2022/10/26 12:26:23;;;;;;;10.65;2.45;;;;;;;;;;5015654;28;20168;-66
2022/10/26 12:29:00;;;;;;;8.32;2.70;;;;;;;;;;5014726;28;20034;-65
2022/10/26 12:31:35;;;;;;;5.75;2.20;;;;;;;;;;5015463;28;20116;-65
2022/10/26 12:34:01;;;;;;;5.63;2.25;;;;;;;;;;5015735;28;20065;-65
2022/10/26 12:36:55;;;;;;;4.68;1.92;;;;;;;;;;5015182;28;20125;-65
2022/10/26 12:39:41;;;;;;;4.25;2.15;;;;;;;;;;5013262;28;20048;-65
2022/10/26 12:42:06;;;;;;;8.20;2.20;;;;;;;;;;5004577;28;20029;-65
2022/10/26 12:44:39;;;;;;;5.32;2.08;;;;;;;;;;4995764;28;20026;-65
2022/10/26 12:47:06;;;;;;;6.20;2.10;;;;;;;;;;4995140;28;20058;-64
2022/10/26 12:50:00;;;;;;;9.27;2.42;;;;;;;;;;4995159;28;20041;-65
2022/10/26 12:52:54;;;;;;;5.32;2.10;;;;;;;;;;4996080;28;20045;-64
2022/10/26 12:55:32;;;;;;;4.13;1.90;;;;;;;;;;5014901;28;20406;-65
2022/10/26 12:58:16;;;;;;;6.97;2.35;;;;;;;;;;5014288;28;20026;-64
2022/10/26 13:00:59;;;;;;;5.75;1.92;;;;;;;;;;5012619;28;20030;-64
2022/10/26 13:03:53;;;;;;;8.65;1.80;;;;;;;;;;5014994;28;20422;-65
2022/10/26 13:06:21;;;;;;;6.40;2.20;;;;;;;;;;5013743;28;20030;-65
2022/10/26 13:08:51;;;;;;;5.90;2.00;;;;;;;;;;5010134;28;20063;-65
2022/10/26 13:11:24;;;;;;;6.43;1.92;;;;;;;;;;5014863;28;20038;-65
2022/10/26 13:14:02;;;;;;;3.85;1.80;;;;;;;;;;5014364;28;20026;-65
2022/10/26 13:16:28;;;;;;;4.30;2.05;;;;;;;;;;5014354;28;20080;-65
2022/10/26 13:18:54;;;;;;;8.52;2.13;;;;;;;;;;5013970;28;20046;-65
2022/10/26 13:21:22;;;;;;;3.80;1.67;;;;;;;;;;5013569;28;20044;-65
2022/10/26 13:23:56;;;;;;;3.58;1.60;;;;;;;;;;5012533;28;20046;-64
2022/10/26 13:26:24;;;;;;;6.72;2.00;;;;;;;;;;5014546;28;20037;-65
2022/10/26 13:28:52;;;;;;;5.28;1.90;;;;;;;;;;5013411;28;20060;-66
2022/10/26 13:31:38;;;;;;;7.53;1.80;;;;;;;;;;5012731;28;20161;-65
2022/10/26 13:34:13;;;;;;;5.40;1.90;;;;;;;;;;5013312;28;20022;-64
2022/10/26 13:36:58;;;;;;;4.97;2.17;;;;;;;;;;5008153;28;20456;-64
2022/10/26 13:39:34;;;;;;;4.35;1.73;;;;;;;;;;5012935;28;20064;-65
2022/10/26 13:42:01;;;;;;;5.40;1.90;;;;;;;;;;5013435;28;20030;-65
2022/10/26 13:44:39;;;;;;;5.63;1.80;;;;;;;;;;5014223;28;20041;-65
2022/10/26 13:47:29;;;;;;;3.75;1.80;;;;;;;;;;5014129;28;20113;-65
2022/10/26 13:49:59;;;;;;;3.88;1.83;;;;;;;;;;5012719;28;20493;-65
2022/10/26 13:52:31;;;;;;;5.37;2.13;;;;;;;;;;5011619;28;20040;-65
2022/10/26 13:55:02;;;;;;;4.18;1.70;;;;;;;;;;5011956;28;20394;-65
2022/10/26 13:57:34;;;;;;;5.18;1.80;;;;;;;;;;5013826;28;20091;-65
2022/10/26 14:00:07;;;;;;;3.15;1.60;;;;;;;;;;5013361;28;20053;-66
2022/10/26 14:02:33;;;;;;;5.63;1.90;;;;;;;;;;5013838;28;20071;-64
2022/10/26 14:05:00;;;;;;;5.43;1.90;;;;;;;;;;5012896;28;20104;-65
2022/10/26 14:07:43;;;;;;;5.28;1.48;;;;;;;;;;5007908;28;20048;-66
2022/10/26 14:10:29;;;;;;;4.70;1.70;;;;;;;;;;5012514;28;20077;-65
2022/10/26 14:12:56;;;;;;;6.90;1.80;;;;;;;;;;5013023;28;20034;-65
2022/10/26 14:15:25;;;;;;;4.72;1.75;;;;;;;;;;5013684;28;20026;-65
2022/10/26 14:17:52;;;;;;;3.88;1.50;;;;;;;;;;5012633;28;20030;-65
2022/10/26 14:20:21;;;;;;;1.83;1.40;;;;;;;;;;5013886;28;20112;-65
2022/10/26 14:22:46;;;;;;;4.68;1.63;;;;;;;;;;5006116;28;20056;-65
2022/10/26 14:25:23;;;;;;;4.85;1.70;;;;;;;;;;5013151;28;20462;-65
2022/10/26 14:27:49;;;;;;;5.97;1.70;;;;;;;;;;5012894;28;20044;-64
2022/10/26 14:30:28;;;;;;;3.45;1.60;;;;;;;;;;5013183;28;20476;-64
2022/10/26 14:32:54;;;;;;;3.38;1.50;;;;;;;;;;5011361;28;20466;-65
2022/10/26 14:35:28;;;;;;;3.45;1.40;;;;;;;;;;5012938;28;20026;-64
2022/10/26 14:38:03;;;;;;;3.47;1.50;;;;;;;;;;5006079;28;20030;-65
2022/10/26 14:40:33;;;;;;;6.82;1.70;;;;;;;;;;5013328;28;20061;-65
2022/10/26 14:43:00;;;;;;;3.80;1.58;;;;;;;;;;5012627;28;20064;-64
2022/10/26 14:45:35;;;;;;;4.78;1.60;;;;;;;;;;4995203;28;20037;-64
2022/10/26 14:48:02;;;;;;;4.82;1.70;;;;;;;;;;5012293;28;20041;-65
2022/10/26 14:50:29;;;;;;;3.70;1.50;;;;;;;;;;5011766;28;20033;-65
2022/10/26 14:52:59;;;;;;;4.80;1.60;;;;;;;;;;5007109;28;20481;-65
2022/10/26 14:55:25;;;;;;;4.28;1.48;;;;;;;;;;5013108;28;20076;-65
2022/10/26 14:57:52;;;;;;;4.45;1.67;;;;;;;;;;5011957;28;20430;-65
2022/10/26 15:00:21;;;;;;;4.35;1.63;;;;;;;;;;5011686;28;20128;-65
2022/10/26 15:02:48;;;;;;;2.85;1.60;;;;;;;;;;5012340;28;20034;-64
2022/10/26 15:05:23;;;;;;;4.25;1.40;;;;;;;;;;5012880;28;20030;-65